Terminal Aerodrome Forecast
Issued by NWS

Home | Current Version | Previous Version | Text Only | Print | Product List | Glossary On
Versions: 1 2 3 4 5 6 7 8 9 10 11 12 13 14
000
FTUS43 KIND 260833 AAA
TAFBMG
TAF AMD
KBMG 260833Z 2609/2706 20006KT P6SM BKN020 BKN070
     FM261600 21008KT P6SM SCT025 BKN080
     FM261900 20008KT P6SM BKN040
      AMD LTD TO CLD VIS AND WIND TIL 261300=

USA.gov is the U.S. government's official web portal to all federal, state and local government web resources and services.